Accueil
METAR-TAF:

METAR-TAF

Aéroports :

Aéroport d'Owerri

Owerri, Nigeria

latitude: 5-25-35N, longitude: 7-12-20E, altitude: 114 m

METAR: absent

Heure: 04:21 (03:21 UTC)

Prévision

Le bulletin a été fait il y a 4 heures et 21 minutes, à 23:00 UTC
Prévision valable du 04 à 00 UTC au 05 à 06 UTC
Vent 2 kt de direction variable
Visibilité: 8000 m
Nuages épars à une hauteur de 900 ft
Temporairement
du 04 à 04 UTC au 04 à 07 UTC
Visibilité: 5000 m
brume, brume sèche
Evoluant progressivement
du 04 à 08 UTC au 04 à 10 UTC
Vent 10 kt de ouest/nord-ouest
Nuages fragmentés à une hauteur de 1300 ft

TAF: DNIM 032300Z 0400/0506 VRB02KT 8000 SCT009 TEMPO 0404/0407 5000 BR HZ BECMG 0408/0410 30010KT BKN013

Observations et prévisions météorologiques de plus de 4000 aéroports (messages METAR et TAF).

Les stations disponibles sont représentées par des disques jaunes et rouges sur la carte.

Passer la souris dessus pour voir le nom de la station.

Cliquer dessus pour voir les observations et prévisions météorologiques.

Pour changer de carte: cliquez sur les boutons verts avec une croix noire pour zoomer, sur le bouton vert avec un tiret pour effectuer un zoom arrière, ou sur les flèches vertes pour les cartes adjacentes.


METAR-TAF: